Time;durP1;ratioP1;P1;durP2;ratioP2;P2;SDS_P1;SDS_P2;PMS_P1;PMS_P2;Temp;Humidity;BMP_temperature;BMP_pressure;BME280_temperature;BME280_humidity;BME280_pressure;Samples;Min_cycle;Max_cycle;Signal;HPM_P1;HPM_P2
2021/06/21 00:02:21;;;;;;;9.82;8.07;;;;;;;17.91;82.93;93582.56;6075148;23;20072;-78
2021/06/21 00:04:47;;;;;;;11.10;7.32;;;;;;;17.87;83.06;93584.38;6070712;23;20010;-79
2021/06/21 00:07:13;;;;;;;12.68;7.22;;;;;;;17.93;82.73;93572.31;6078972;23;20009;-78
2021/06/21 00:09:40;;;;;;;8.77;6.45;;;;;;;17.97;82.08;93563.28;6080247;23;20456;-81
2021/06/21 00:12:10;;;;;;;10.63;7.07;;;;;;;17.92;82.15;93568.09;6101879;23;20021;-78
2021/06/21 00:14:36;;;;;;;13.02;6.22;;;;;;;17.79;82.52;93569.25;6078502;23;20595;-79
2021/06/21 00:17:02;;;;;;;9.52;6.15;;;;;;;17.84;82.30;93569.00;6097207;23;20132;-79
2021/06/21 00:19:28;;;;;;;9.25;6.10;;;;;;;17.82;82.34;93568.56;6133420;23;20036;-79
2021/06/21 00:21:54;;;;;;;7.05;6.35;;;;;;;17.68;82.23;93564.38;6144139;23;20001;-79
2021/06/21 00:24:20;;;;;;;11.20;6.85;;;;;;;17.61;82.80;93566.81;6109044;23;20024;-78
2021/06/21 00:26:47;;;;;;;8.20;6.90;;;;;;;17.54;82.97;93553.25;6131991;23;20022;-78
2021/06/21 00:29:14;;;;;;;8.57;7.78;;;;;;;17.49;83.05;93548.13;6133036;23;20068;-78
2021/06/21 00:31:39;;;;;;;11.60;8.68;;;;;;;17.38;84.10;93555.03;6140732;23;20040;-79
2021/06/21 00:34:05;;;;;;;9.15;7.47;;;;;;;17.17;84.92;93549.81;6147021;23;20036;-79
2021/06/21 00:36:30;;;;;;;13.32;7.38;;;;;;;17.22;84.57;93543.47;6121165;23;20049;-78
2021/06/21 00:38:56;;;;;;;8.25;6.20;;;;;;;17.41;83.87;93546.34;6132340;23;20009;-79
2021/06/21 00:41:21;;;;;;;6.85;6.15;;;;;;;17.38;83.46;93544.38;6134206;23;20056;-79
2021/06/21 00:43:47;;;;;;;7.30;5.82;;;;;;;17.31;83.67;93533.44;6138443;23;20019;-79
2021/06/21 00:46:12;;;;;;;9.50;6.15;;;;;;;17.25;83.54;93540.16;6133357;23;20005;-78
2021/06/21 00:48:38;;;;;;;8.35;5.75;;;;;;;17.00;84.42;93535.94;6146195;23;19998;-79
2021/06/21 00:51:04;;;;;;;9.88;5.80;;;;;;;17.06;84.40;93531.91;6135961;23;20021;-79
2021/06/21 00:53:29;;;;;;;10.18;6.07;;;;;;;17.17;84.22;93541.81;6135279;23;20096;-78
2021/06/21 00:55:56;;;;;;;12.40;5.80;;;;;;;17.07;83.99;93536.16;6106292;23;20354;-79
2021/06/21 00:58:21;;;;;;;6.03;5.43;;;;;;;17.04;84.35;93542.16;6135287;23;20014;-79
2021/06/21 01:00:47;;;;;;;7.20;5.95;;;;;;;17.12;84.38;93547.38;6138734;23;20005;-78
2021/06/21 01:03:12;;;;;;;6.60;5.88;;;;;;;17.10;84.50;93554.19;6137852;23;20364;-78
2021/06/21 01:05:39;;;;;;;8.75;6.03;;;;;;;17.14;84.51;93555.06;6133962;23;20108;-78
2021/06/21 01:08:07;;;;;;;6.80;6.10;;;;;;;17.00;84.29;93522.59;6144069;23;20382;-78
2021/06/21 01:14:34;;;;;;;8.45;6.40;;;;;;;17.22;83.86;93549.59;6139792;23;20094;-87
2021/06/21 01:17:09;;;;;;;8.80;5.53;;;;;;;17.40;82.96;93552.78;6094304;23;20025;-85
2021/06/21 01:19:57;;;;;;;6.72;6.03;;;;;;;17.14;83.68;93550.50;6149851;23;20017;-87
2021/06/21 01:23:00;;;;;;;7.85;6.90;;;;;;;17.07;83.92;93547.59;6149492;23;20444;-86
2021/06/21 01:25:41;;;;;;;9.68;6.53;;;;;;;17.02;84.36;93544.38;6150157;23;20041;-86
2021/06/21 01:28:14;;;;;;;8.77;6.80;;;;;;;16.99;84.62;93542.38;6151229;23;20029;-86
2021/06/21 01:30:52;;;;;;;7.40;6.47;;;;;;;16.89;84.67;93539.06;6115746;23;20005;-85
2021/06/21 01:33:19;;;;;;;11.43;6.60;;;;;;;17.00;84.35;93547.41;6142711;23;20104;-86
2021/06/21 01:35:53;;;;;;;11.25;6.93;;;;;;;17.06;84.30;93545.25;6144422;23;20028;-87
2021/06/21 01:38:22;;;;;;;8.15;6.60;;;;;;;16.98;84.12;93540.81;6120395;23;20027;-86
2021/06/21 01:40:53;;;;;;;7.97;6.38;;;;;;;17.06;84.18;93545.25;6148526;23;20009;-85
2021/06/21 01:43:24;;;;;;;8.15;6.55;;;;;;;17.22;83.58;93554.16;6115888;23;20009;-86
2021/06/21 01:45:50;;;;;;;8.65;6.68;;;;;;;17.17;83.15;93560.50;6118738;23;20084;-87
2021/06/21 01:48:16;;;;;;;6.43;5.88;;;;;;;16.98;83.56;93562.19;6114853;23;20427;-86
2021/06/21 01:50:46;;;;;;;11.25;6.90;;;;;;;16.87;84.23;93567.97;6145045;23;20025;-86
2021/06/21 01:53:15;;;;;;;9.73;7.03;;;;;;;16.86;84.54;93561.06;6145734;23;20479;-86
2021/06/21 01:55:56;;;;;;;10.05;7.07;;;;;;;16.89;84.33;93568.41;6141750;23;20017;-87
2021/06/21 01:58:22;;;;;;;10.25;7.85;;;;;;;16.65;84.70;93554.25;6114362;23;20013;-88
2021/06/21 02:00:48;;;;;;;8.85;7.40;;;;;;;16.55;85.26;93568.00;6154337;23;20187;-86
2021/06/21 02:03:17;;;;;;;12.73;8.48;;;;;;;16.52;85.95;93566.75;6116257;23;20028;-86
2021/06/21 02:05:42;;;;;;;11.68;7.72;;;;;;;16.49;85.90;93564.75;6144471;23;20025;-86
2021/06/21 02:08:12;;;;;;;9.52;8.35;;;;;;;16.64;85.61;93558.03;6147375;23;20141;-87
2021/06/21 02:10:39;;;;;;;10.18;7.85;;;;;;;16.67;85.39;93552.03;6149603;23;20366;-87
2021/06/21 02:13:07;;;;;;;8.18;7.15;;;;;;;16.64;85.11;93556.16;6145007;23;20075;-86
2021/06/21 02:15:33;;;;;;;9.10;7.47;;;;;;;16.50;85.54;93558.31;6114147;23;20587;-81
2021/06/21 02:18:00;;;;;;;11.73;7.50;;;;;;;16.44;85.43;93562.31;6113562;23;20022;-86
2021/06/21 02:20:26;;;;;;;9.07;7.10;;;;;;;16.39;85.82;93568.63;6111235;23;20014;-86
2021/06/21 02:22:52;;;;;;;8.73;7.50;;;;;;;16.46;85.46;93581.44;6119214;23;20017;-86
2021/06/21 02:25:18;;;;;;;10.30;7.82;;;;;;;16.52;85.40;93569.44;6110903;23;20005;-85
2021/06/21 02:27:44;;;;;;;9.93;7.80;;;;;;;16.47;85.71;93569.63;6124888;23;20081;-87
2021/06/21 02:30:13;;;;;;;15.10;7.45;;;;;;;16.31;86.13;93561.50;6113629;23;20021;-86
2021/06/21 02:32:40;;;;;;;8.57;6.53;;;;;;;16.36;85.78;93557.84;6114366;23;20021;-86
2021/06/21 02:35:09;;;;;;;7.97;5.43;;;;;;;16.49;85.08;93562.09;6111186;23;20018;-85
2021/06/21 02:37:36;;;;;;;7.65;5.97;;;;;;;16.46;85.01;93565.44;6085395;23;20034;-86
2021/06/21 02:40:04;;;;;;;8.15;6.30;;;;;;;16.37;85.17;93562.84;6125224;23;20615;-87
2021/06/21 02:42:29;;;;;;;7.07;5.88;;;;;;;16.35;84.98;93562.41;6110270;23;20014;-86
2021/06/21 02:44:55;;;;;;;9.88;6.05;;;;;;;16.45;84.52;93572.66;6087069;23;20025;-87
2021/06/21 02:47:20;;;;;;;7.50;5.85;;;;;;;16.32;84.59;93567.63;6115681;23;20018;-88
2021/06/21 02:49:47;;;;;;;7.18;6.05;;;;;;;16.00;85.51;93559.28;6119030;23;20405;-87
2021/06/21 02:52:28;;;;;;;7.75;6.47;;;;;;;16.10;86.31;93565.31;6084216;23;20468;-86
2021/06/21 02:55:11;;;;;;;10.68;5.97;;;;;;;16.16;86.07;93564.78;6087991;23;20064;-87
2021/06/21 02:58:02;;;;;;;8.50;6.30;;;;;;;16.16;85.97;93558.69;6111361;23;20045;-85
2021/06/21 03:00:29;;;;;;;12.15;6.75;;;;;;;16.16;85.95;93542.69;6104374;23;20137;-82
2021/06/21 03:02:56;;;;;;;7.57;6.30;;;;;;;16.24;85.71;93544.47;6110484;23;20018;-86
2021/06/21 03:05:23;;;;;;;7.60;5.53;;;;;;;16.23;85.57;93535.69;6115277;23;20014;-86
2021/06/21 03:07:50;;;;;;;5.72;5.07;;;;;;;16.33;85.37;93545.16;6111416;23;20021;-82
2021/06/21 03:10:18;;;;;;;7.43;4.97;;;;;;;16.46;84.99;93528.88;6119771;23;20108;-85
2021/06/21 03:12:45;;;;;;;10.07;5.25;;;;;;;16.46;84.96;93542.22;6114832;23;20096;-86
2021/06/21 03:15:13;;;;;;;9.45;4.68;;;;;;;16.57;85.02;93547.09;6085127;23;20022;-86
2021/06/21 03:17:40;;;;;;;7.55;5.18;;;;;;;16.67;84.23;93544.81;6114325;23;20703;-86
2021/06/21 03:20:06;;;;;;;5.95;4.68;;;;;;;16.84;83.37;93544.63;6111801;23;20022;-85
2021/06/21 03:22:31;;;;;;;12.18;5.28;;;;;;;16.83;83.22;93540.38;6120194;23;20021;-85
2021/06/21 03:24:57;;;;;;;5.43;4.93;;;;;;;16.93;83.31;93543.72;6122976;23;20006;-86
2021/06/21 03:27:28;;;;;;;7.90;4.70;;;;;;;16.95;83.01;93542.28;6085074;23;20473;-86
2021/06/21 03:29:53;;;;;;;6.75;5.53;;;;;;;16.85;83.08;93543.50;6112369;23;20021;-87
2021/06/21 03:32:28;;;;;;;6.72;5.53;;;;;;;16.96;82.99;93549.16;6112248;23;20068;-85
2021/06/21 03:35:00;;;;;;;8.15;5.28;;;;;;;16.87;83.12;93551.94;6085144;23;20389;-86
2021/06/21 03:37:26;;;;;;;15.43;10.10;;;;;;;16.89;83.49;93549.72;6111360;23;20522;-86
2021/06/21 03:39:51;;;;;;;9.18;7.90;;;;;;;16.99;83.16;93542.38;6087436;23;20014;-85
2021/06/21 03:42:17;;;;;;;9.55;7.57;;;;;;;17.10;82.77;93540.84;6111753;23;20043;-87
2021/06/21 03:44:43;;;;;;;7.95;6.70;;;;;;;17.79;82.29;93551.28;6115100;23;20553;-85
2021/06/21 03:47:11;;;;;;;12.85;5.47;;;;;;;18.60;79.09;93547.41;6111770;23;20377;-86
2021/06/21 03:49:42;;;;;;;6.28;4.95;;;;;;;19.60;75.25;93545.16;6108474;23;20014;-87
2021/06/21 03:52:07;;;;;;;7.50;4.15;;;;;;;20.45;71.69;93538.84;6120395;23;20014;-87
2021/06/21 03:54:33;;;;;;;8.95;4.07;;;;;;;21.27;67.92;93536.38;6123709;23;20332;-85
2021/06/21 03:56:58;;;;;;;6.70;3.78;;;;;;;22.01;64.92;93540.13;6111369;23;20018;-83
2021/06/21 03:59:24;;;;;;;5.82;3.47;;;;;;;22.72;63.20;93538.25;6114675;23;20014;-86
2021/06/21 04:01:49;;;;;;;5.50;3.53;;;;;;;23.45;59.67;93555.44;6110022;23;20405;-87
2021/06/21 04:04:15;;;;;;;5.90;4.03;;;;;;;24.22;57.18;93554.34;6083452;23;20014;-87
2021/06/21 04:06:41;;;;;;;4.10;3.50;;;;;;;24.82;54.81;93553.75;6111275;23;20433;-88
2021/06/21 04:09:06;;;;;;;4.85;3.88;;;;;;;25.30;52.79;93559.59;6111093;23;20045;-87
2021/06/21 04:11:32;;;;;;;6.95;4.20;;;;;;;25.73;51.62;93549.53;6110495;23;20121;-88
2021/06/21 04:13:58;;;;;;;4.63;3.85;;;;;;;25.80;50.06;93533.28;6110212;23;20025;-87
2021/06/21 04:16:24;;;;;;;8.05;3.42;;;;;;;26.29;49.29;93552.09;6112929;23;20018;-86
2021/06/21 04:18:49;;;;;;;6.47;3.53;;;;;;;26.92;47.51;93542.13;6085391;23;20092;-85
2021/06/21 04:21:14;;;;;;;4.13;3.55;;;;;;;27.45;46.57;93540.94;6107869;23;20022;-83
2021/06/21 04:23:40;;;;;;;4.30;3.90;;;;;;;27.76;45.73;93528.28;6110017;23;20175;-85
2021/06/21 04:26:05;;;;;;;5.53;3.60;;;;;;;28.17;45.01;93542.59;6108822;23;20662;-86
2021/06/21 04:28:31;;;;;;;6.63;4.38;;;;;;;28.52;44.09;93541.41;6116820;23;20881;-86
2021/06/21 04:30:56;;;;;;;6.43;3.85;;;;;;;29.00;42.84;93537.66;6121891;23;20496;-87
2021/06/21 04:33:22;;;;;;;5.45;4.32;;;;;;;29.29;41.85;93542.28;6110312;23;20441;-87
2021/06/21 04:35:48;;;;;;;7.38;4.03;;;;;;;29.40;42.40;93538.66;6109567;23;20022;-87
2021/06/21 04:38:13;;;;;;;5.80;4.93;;;;;;;29.53;41.20;93553.97;6115791;23;20740;-81
2021/06/21 04:40:39;;;;;;;10.43;5.90;;;;;;;28.56;42.82;93547.56;6083102;23;20041;-80
2021/06/21 04:43:04;;;;;;;10.30;5.55;;;;;;;28.15;43.70;93561.25;6111622;23;20445;-79
2021/06/21 04:45:30;;;;;;;7.75;5.63;;;;;;;27.90;44.65;93556.06;6109998;23;20264;-79
2021/06/21 04:47:56;;;;;;;9.65;6.15;;;;;;;27.96;44.16;93565.31;6114333;23;20068;-80
2021/06/21 04:50:21;;;;;;;8.40;5.82;;;;;;;27.68;44.97;93571.00;6109552;23;20018;-80
2021/06/21 04:52:48;;;;;;;11.13;5.80;;;;;;;27.82;44.75;93560.00;6110937;23;20022;-79
2021/06/21 04:55:16;;;;;;;20.23;5.78;;;;;;;27.91;44.64;93578.53;6110394;23;20314;-80
2021/06/21 04:57:42;;;;;;;13.60;6.05;;;;;;;27.95;44.48;93585.47;6086271;23;20307;-80
2021/06/21 05:00:16;;;;;;;7.53;5.65;;;;;;;28.37;44.22;93586.25;6113203;23;20056;-80
2021/06/21 05:02:42;;;;;;;13.00;6.78;;;;;;;28.63;42.74;93579.34;6112567;23;20464;-79
2021/06/21 05:05:09;;;;;;;7.80;6.28;;;;;;;28.78;42.40;93581.47;6112467;23;20045;-81
2021/06/21 05:07:35;;;;;;;12.43;6.43;;;;;;;28.45;42.94;93590.41;6109126;23;20012;-80
2021/06/21 05:10:02;;;;;;;9.80;5.95;;;;;;;28.94;41.88;93582.84;6116207;23;19998;-80
2021/06/21 05:12:28;;;;;;;7.03;4.95;;;;;;;29.09;41.36;93574.06;6112161;23;20018;-79
2021/06/21 05:14:53;;;;;;;6.57;4.82;;;;;;;29.77;40.58;93573.03;6110704;23;20028;-80
2021/06/21 05:17:19;;;;;;;7.25;4.70;;;;;;;29.70;40.16;93568.50;6116164;23;20405;-79
2021/06/21 05:19:45;;;;;;;6.07;5.47;;;;;;;30.07;39.83;93581.09;6117513;23;20018;-80
2021/06/21 05:22:10;;;;;;;9.38;6.93;;;;;;;29.91;39.73;93583.72;6085408;23;20401;-80
2021/06/21 05:24:36;;;;;;;9.65;5.57;;;;;;;30.28;39.52;93571.75;6114649;23;20033;-80
2021/06/21 05:27:02;;;;;;;14.43;8.68;;;;;;;30.16;39.89;93578.56;6084857;23;20100;-80
2021/06/21 05:29:27;;;;;;;9.93;7.65;;;;;;;30.04;40.56;93584.66;6112765;23;20129;-80
2021/06/21 05:31:53;;;;;;;15.07;9.23;;;;;;;30.48;40.44;93589.69;6084095;23;20025;-79
2021/06/21 05:34:18;;;;;;;13.07;8.73;;;;;;;30.94;39.10;93588.72;6120828;23;20392;-79
2021/06/21 05:36:44;;;;;;;12.75;8.57;;;;;;;31.53;37.97;93589.78;6124667;23;20013;-80
2021/06/21 05:39:09;;;;;;;14.50;8.73;;;;;;;30.75;39.28;93594.97;6112637;23;20474;-80
2021/06/21 05:41:35;;;;;;;13.95;9.20;;;;;;;30.88;39.20;93597.84;6113697;23;20022;-80
2021/06/21 05:44:00;;;;;;;10.85;9.02;;;;;;;30.84;39.36;93597.13;6112666;23;20453;-80
2021/06/21 05:46:26;;;;;;;12.52;10.23;;;;;;;30.51;39.77;93591.56;6121129;23;20036;-80
2021/06/21 05:48:51;;;;;;;19.77;10.85;;;;;;;30.48;39.79;93600.59;6114273;23;20006;-80
2021/06/21 05:51:17;;;;;;;13.15;8.32;;;;;;;30.83;39.50;93606.53;6108778;23;20763;-80
2021/06/21 05:53:42;;;;;;;11.68;8.43;;;;;;;31.21;38.47;93601.44;6113445;23;20029;-80
2021/06/21 05:56:07;;;;;;;11.85;8.73;;;;;;;30.71;39.04;93596.25;6112987;23;20036;-79
2021/06/21 05:58:33;;;;;;;9.75;8.27;;;;;;;30.60;39.34;93585.53;6084062;23;20345;-81
2021/06/21 06:00:58;;;;;;;16.08;8.63;;;;;;;31.25;38.39;93597.44;6123518;23;20258;-80
2021/06/21 06:03:24;;;;;;;9.75;8.80;;;;;;;31.62;37.35;93587.25;6082469;23;20088;-80
2021/06/21 06:05:50;;;;;;;11.18;8.05;;;;;;;32.31;36.16;93593.31;6113166;23;20029;-80
2021/06/21 06:08:16;;;;;;;18.52;8.57;;;;;;;32.02;36.28;93588.56;6117340;23;20029;-79
2021/06/21 06:10:43;;;;;;;15.02;8.73;;;;;;;31.82;36.41;93585.19;6112012;23;20412;-81
2021/06/21 06:13:09;;;;;;;17.67;8.32;;;;;;;32.77;35.54;93579.19;6111824;23;20021;-83
2021/06/21 06:15:34;;;;;;;12.95;8.00;;;;;;;33.33;34.78;93579.47;6112810;23;20002;-81
2021/06/21 06:18:00;;;;;;;10.63;7.15;;;;;;;34.06;33.08;93585.00;6108385;23;20449;-81
2021/06/21 06:20:26;;;;;;;13.38;7.72;;;;;;;34.59;32.50;93591.41;6100430;23;20465;-81
2021/06/21 06:22:51;;;;;;;12.43;7.65;;;;;;;35.24;31.40;93576.91;6104724;23;20018;-81
2021/06/21 06:25:17;;;;;;;9.73;7.57;;;;;;;35.49;31.51;93585.69;6081308;23;20459;-80
2021/06/21 06:27:43;;;;;;;9.23;8.00;;;;;;;35.74;30.78;93594.94;6109181;23;20010;-82
2021/06/21 06:30:11;;;;;;;10.65;7.88;;;;;;;36.23;30.01;93587.44;6080872;23;20025;-82
2021/06/21 06:32:37;;;;;;;9.43;6.47;;;;;;;36.68;29.91;93602.44;6104017;23;20029;-81
2021/06/21 06:35:04;;;;;;;8.45;7.10;;;;;;;37.33;28.75;93603.88;6116291;23;20017;-83
2021/06/21 06:37:29;;;;;;;8.52;6.78;;;;;;;37.80;28.44;93601.25;6115056;23;20092;-82
2021/06/21 06:39:55;;;;;;;15.40;8.02;;;;;;;37.79;28.12;93591.44;6114545;23;20077;-81
2021/06/21 06:42:25;;;;;;;9.43;7.00;;;;;;;37.51;28.16;93595.53;6110929;23;20018;-80
2021/06/21 06:44:51;;;;;;;10.75;7.65;;;;;;;37.35;28.22;93604.94;6085319;23;20030;-81
2021/06/21 06:47:16;;;;;;;12.27;7.85;;;;;;;37.23;28.39;93598.41;6115235;23;20029;-80
2021/06/21 06:49:42;;;;;;;14.40;6.95;;;;;;;36.45;30.27;93604.56;6118544;23;20024;-81
2021/06/21 06:52:08;;;;;;;11.85;6.38;;;;;;;36.71;29.18;93607.03;6084052;23;20449;-81
2021/06/21 06:57:22;;;;;;;10.65;7.43;;;;;;;36.41;29.51;93595.69;6065181;23;20018;-81
2021/06/21 06:59:48;;;;;;;11.00;7.72;;;;;;;36.45;29.79;93599.06;6111112;23;20006;-81
2021/06/21 07:02:21;;;;;;;11.40;6.47;;;;;;;36.97;29.33;93590.91;6083756;23;20069;-81
2021/06/21 07:04:47;;;;;;;;;;;;;;;38.04;28.22;93595.78;6116925;23;20065;-82
2021/06/21 07:07:12;;;;;;;12.30;8.05;;;;;;;38.25;27.40;93591.19;6112093;23;20383;-82
2021/06/21 07:09:38;;;;;;;14.13;6.72;;;;;;;38.67;27.41;93583.50;6113240;23;20006;-81
2021/06/21 07:12:04;;;;;;;9.43;7.55;;;;;;;37.86;27.77;93599.38;6110950;23;20101;-81
2021/06/21 07:14:29;;;;;;;12.65;7.93;;;;;;;37.21;28.72;93600.84;6083791;23;20021;-80
2021/06/21 07:16:55;;;;;;;14.00;7.20;;;;;;;37.76;28.96;93595.16;6114826;23;20021;-81
2021/06/21 07:19:21;;;;;;;15.80;7.57;;;;;;;38.50;27.85;93596.25;6084630;23;20081;-82
2021/06/21 07:21:47;;;;;;;9.45;6.57;;;;;;;39.22;26.92;93591.28;6110871;23;20002;-82
2021/06/21 07:24:14;;;;;;;11.63;7.45;;;;;;;39.15;26.36;93600.72;6109947;23;20110;-82
2021/06/21 07:26:42;;;;;;;15.98;8.52;;;;;;;39.29;26.44;93601.97;6081500;23;20081;-82
2021/06/21 07:29:08;;;;;;;16.42;8.50;;;;;;;40.02;25.66;93603.88;6111179;23;20211;-82
2021/06/21 07:31:34;;;;;;;8.43;7.55;;;;;;;40.32;25.23;93608.06;6080547;23;20080;-82
2021/06/21 07:34:00;;;;;;;11.50;8.90;;;;;;;40.23;25.20;93608.97;6113306;23;20010;-81
2021/06/21 07:36:26;;;;;;;11.60;8.05;;;;;;;41.29;24.36;93606.66;6110257;23;20014;-81
2021/06/21 07:38:53;;;;;;;10.05;8.35;;;;;;;41.87;23.68;93608.16;6108955;23;20021;-82
2021/06/21 07:41:19;;;;;;;11.65;8.95;;;;;;;41.38;23.82;93603.69;6115487;23;20037;-82
2021/06/21 07:43:44;;;;;;;12.35;7.88;;;;;;;40.92;24.11;93614.81;6082984;23;20460;-82
2021/06/21 07:46:10;;;;;;;15.52;8.82;;;;;;;40.46;24.42;93610.03;6119562;23;20013;-81
2021/06/21 07:48:40;;;;;;;8.60;7.78;;;;;;;40.27;25.53;93608.78;6122968;23;20002;-81
2021/06/21 07:51:07;;;;;;;11.68;8.55;;;;;;;39.90;25.68;93613.25;6110610;23;20013;-82
2021/06/21 07:53:33;;;;;;;8.60;6.53;;;;;;;40.82;25.17;93616.22;6083436;23;20056;-81
2021/06/21 07:55:58;;;;;;;9.88;7.07;;;;;;;41.33;24.20;93612.72;6082895;23;20033;-81
2021/06/21 07:58:24;;;;;;;13.38;8.35;;;;;;;41.18;24.04;93612.09;6110330;23;20009;-81
2021/06/21 08:00:50;;;;;;;13.45;6.40;;;;;;;41.45;24.08;93612.34;6123092;23;20488;-81
2021/06/21 08:03:15;;;;;;;13.82;6.20;;;;;;;42.30;24.35;93603.38;6107980;23;20014;-82
2021/06/21 08:05:47;;;;;;;5.60;4.63;;;;;;;43.13;22.37;93608.50;6111504;23;20101;-82
2021/06/21 08:08:12;;;;;;;8.57;4.50;;;;;;;43.64;22.29;93601.72;6114810;23;20053;-83
2021/06/21 08:10:38;;;;;;;8.80;6.10;;;;;;;43.81;21.60;93596.88;6085098;23;20396;-83
2021/06/21 08:13:03;;;;;;;5.30;3.60;;;;;;;43.29;22.29;93599.41;6086115;23;20479;-83
2021/06/21 08:15:29;;;;;;;9.35;3.97;;;;;;;43.92;22.47;93605.25;6085356;23;20022;-82
2021/06/21 08:17:54;;;;;;;8.73;4.45;;;;;;;44.19;22.08;93602.91;6111851;23;20134;-82
2021/06/21 08:20:20;;;;;;;6.10;4.50;;;;;;;43.48;21.60;93605.25;6082321;23;20046;-82
2021/06/21 08:22:45;;;;;;;8.13;4.07;;;;;;;44.19;21.25;93600.13;6110130;23;20039;-81
2021/06/21 08:25:11;;;;;;;7.38;3.38;;;;;;;43.04;22.70;93609.47;6084550;23;20018;-82
2021/06/21 08:27:37;;;;;;;3.92;3.33;;;;;;;42.86;22.35;93603.63;6087381;23;20570;-81
2021/06/21 08:30:05;;;;;;;6.53;3.60;;;;;;;42.97;22.37;93598.06;6108672;23;20077;-83
2021/06/21 08:32:31;;;;;;;10.27;3.60;;;;;;;42.74;22.55;93608.38;6109551;23;20022;-84
2021/06/21 08:34:57;;;;;;;6.60;3.42;;;;;;;43.08;22.45;93603.69;6109698;23;20014;-83
2021/06/21 08:37:22;;;;;;;8.05;4.28;;;;;;;43.62;21.70;93595.91;6108778;23;20012;-81
2021/06/21 08:39:48;;;;;;;7.40;3.22;;;;;;;43.69;21.54;93595.41;6112199;23;20001;-82
2021/06/21 08:42:15;;;;;;;7.65;3.20;;;;;;;43.12;21.96;93595.84;6110610;23;20017;-81
2021/06/21 08:44:41;;;;;;;8.52;3.30;;;;;;;43.06;22.86;93592.25;6109968;23;20433;-82
2021/06/21 08:47:11;;;;;;;7.22;3.72;;;;;;;43.11;21.88;93581.19;6082901;23;20092;-80
2021/06/21 08:49:43;;;;;;;7.47;3.22;;;;;;;42.97;22.87;93590.47;6083215;23;20022;-82
2021/06/21 08:52:08;;;;;;;5.38;3.15;;;;;;;43.21;22.63;93595.59;6120300;23;20081;-81
2021/06/21 08:54:34;;;;;;;12.00;2.88;;;;;;;43.09;22.07;93586.50;6086235;23;20097;-82
2021/06/21 08:56:59;;;;;;;4.07;2.75;;;;;;;43.54;22.21;93590.09;6112834;23;20076;-82
2021/06/21 08:59:25;;;;;;;5.63;3.65;;;;;;;42.30;22.94;93601.38;6109756;23;20096;-81
2021/06/21 09:01:51;;;;;;;6.22;3.38;;;;;;;42.51;22.46;93603.97;6110626;23;20018;-81
2021/06/21 09:04:17;;;;;;;3.72;2.33;;;;;;;42.75;21.88;93591.22;6111271;23;20013;-82
2021/06/21 09:06:45;;;;;;;3.13;2.33;;;;;;;42.59;21.92;93593.88;6111586;23;20018;-81
2021/06/21 09:09:11;;;;;;;3.25;2.17;;;;;;;42.92;21.75;93588.44;6110538;23;20010;-82
2021/06/21 09:11:46;;;;;;;5.15;3.35;;;;;;;43.05;21.88;93587.97;6114336;23;20084;-81
2021/06/21 09:14:30;;;;;;;4.65;2.53;;;;;;;42.28;22.39;93598.31;6082301;23;20021;-80
2021/06/21 09:17:07;;;;;;;4.57;2.80;;;;;;;40.95;23.44;93595.22;6101937;23;20080;-81
2021/06/21 09:19:44;;;;;;;7.05;2.95;;;;;;;40.70;23.96;93595.97;6114316;23;20634;-82
2021/06/21 09:22:28;;;;;;;3.72;2.58;;;;;;;40.10;23.86;93597.44;6149202;23;20009;-81
2021/06/21 09:24:55;;;;;;;3.65;2.15;;;;;;;38.68;24.79;93585.03;6152258;23;20033;-82
2021/06/21 09:27:22;;;;;;;2.63;1.77;;;;;;;37.91;26.07;93601.50;6115823;23;20100;-81
2021/06/21 09:29:48;;;;;;;3.92;2.10;;;;;;;37.25;26.46;93595.94;6144338;23;20097;-81
2021/06/21 09:32:15;;;;;;;2.58;1.98;;;;;;;36.69;27.20;93601.22;6140219;23;20076;-81
2021/06/21 09:34:42;;;;;;;2.72;2.28;;;;;;;36.52;27.71;93591.72;6146985;23;20104;-79
2021/06/21 09:37:11;;;;;;;4.47;2.55;;;;;;;36.48;27.97;93592.63;6115321;23;20060;-81
2021/06/21 09:39:43;;;;;;;2.80;2.60;;;;;;;35.80;30.05;93587.63;6144347;23;20068;-80
2021/06/21 09:42:24;;;;;;;4.95;2.78;;;;;;;35.79;30.85;93588.84;6116147;23;20025;-82
2021/06/21 09:44:56;;;;;;;6.63;2.42;;;;;;;35.64;30.72;93592.16;6143806;23;20017;-80
2021/06/21 09:47:30;;;;;;;3.15;2.70;;;;;;;35.63;30.35;93592.59;6146166;23;20028;-80
2021/06/21 09:50:04;;;;;;;3.10;2.80;;;;;;;35.17;30.22;93584.19;6147218;23;20017;-81
2021/06/21 09:52:37;;;;;;;4.40;2.58;;;;;;;34.99;30.62;93575.06;6129537;23;20014;-81
2021/06/21 09:55:24;;;;;;;4.72;2.88;;;;;;;34.48;30.68;93586.28;6141629;23;20009;-80
2021/06/21 09:58:06;;;;;;;3.33;2.45;;;;;;;34.32;31.57;93581.75;6142048;23;20017;-81
2021/06/21 10:00:32;;;;;;;3.25;2.28;;;;;;;34.58;31.15;93573.41;6115445;23;20149;-80
2021/06/21 10:03:15;;;;;;;4.47;2.13;;;;;;;34.39;30.64;93575.25;6141892;23;20095;-80
2021/06/21 10:05:45;;;;;;;2.25;2.05;;;;;;;34.53;29.49;93563.75;6114622;23;20025;-81
2021/06/21 10:08:13;;;;;;;3.80;2.00;;;;;;;34.22;32.08;93571.13;6114407;23;20017;-81
2021/06/21 10:10:40;;;;;;;2.85;2.15;;;;;;;34.32;30.23;93576.25;6142067;23;20131;-80
2021/06/21 10:13:07;;;;;;;2.20;2.05;;;;;;;34.33;30.09;93566.06;6140299;23;20006;-80
2021/06/21 10:15:34;;;;;;;2.60;2.40;;;;;;;34.29;30.48;93570.91;6114014;23;20352;-80
2021/06/21 10:18:01;;;;;;;4.38;2.30;;;;;;;34.32;31.58;93576.25;6114516;23;20053;-80
2021/06/21 10:20:26;;;;;;;2.72;2.42;;;;;;;34.09;30.60;93562.94;6084034;23;20536;-81
2021/06/21 10:22:54;;;;;;;4.07;2.28;;;;;;;34.05;31.73;93562.28;6112543;23;20354;-81
2021/06/21 10:25:19;;;;;;;3.75;2.30;;;;;;;34.07;32.48;93559.09;6117239;23;20113;-81
2021/06/21 10:27:46;;;;;;;2.42;2.22;;;;;;;33.82;32.37;93566.16;6088987;23;20109;-81
2021/06/21 10:30:14;;;;;;;2.70;2.38;;;;;;;33.70;32.69;93566.97;6110158;23;20052;-81
2021/06/21 10:32:41;;;;;;;4.57;2.53;;;;;;;33.75;33.18;93571.91;6082301;23;20021;-80
2021/06/21 10:35:08;;;;;;;2.70;2.50;;;;;;;33.83;32.56;93572.44;6111490;23;20124;-81
2021/06/21 10:37:36;;;;;;;2.20;2.00;;;;;;;33.71;32.56;93565.00;6111346;23;20124;-80
2021/06/21 10:40:06;;;;;;;4.70;2.20;;;;;;;33.76;32.46;93578.94;6115798;23;20002;-80
2021/06/21 10:42:36;;;;;;;2.55;2.25;;;;;;;33.71;30.84;93565.78;6111475;23;20026;-81
2021/06/21 10:45:04;;;;;;;2.83;1.90;;;;;;;33.58;31.18;93562.25;6113571;23;20036;-81
2021/06/21 10:47:41;;;;;;;4.20;2.17;;;;;;;33.28;31.51;93562.84;6109618;23;20037;-80
2021/06/21 10:50:12;;;;;;;3.75;2.08;;;;;;;33.36;32.39;93561.41;6085445;23;20017;-80
2021/06/21 10:52:50;;;;;;;1.85;1.75;;;;;;;33.33;31.46;93556.81;6118774;23;20089;-81
2021/06/21 10:57:48;;;;;;;6.55;1.70;;;;;;;32.83;31.85;93552.81;6123129;23;20119;-81
2021/06/21 11:00:15;;;;;;;4.00;1.92;;;;;;;32.61;31.26;93538.94;6086027;23;20010;-80
2021/06/21 11:02:41;;;;;;;3.83;2.20;;;;;;;32.69;33.91;93530.56;6106632;23;20017;-80
2021/06/21 11:05:07;;;;;;;4.43;2.45;;;;;;;32.73;31.58;93548.41;6118200;23;20418;-80
2021/06/21 11:07:33;;;;;;;2.65;1.90;;;;;;;32.48;31.54;93538.16;6111791;23;20018;-81
2021/06/21 11:09:59;;;;;;;2.10;1.90;;;;;;;32.21;31.79;93535.00;6111464;23;20452;-80
2021/06/21 11:12:30;;;;;;;5.50;1.98;;;;;;;32.20;31.23;93539.72;6110600;23;20357;-80
2021/06/21 11:17:32;;;;;;;;;;;;;;;31.78;33.86;93540.78;6114909;23;20369;-81
2021/06/21 11:20:18;;;;;;;2.33;2.00;;;;;;;31.50;32.10;93522.34;6083210;23;19979;-80
2021/06/21 11:22:47;;;;;;;5.45;2.13;;;;;;;31.66;32.55;93534.06;6086341;23;20017;-81
2021/06/21 11:25:23;;;;;;;5.75;1.67;;;;;;;31.58;33.31;93529.97;6110897;23;20010;-80
2021/06/21 11:27:52;;;;;;;2.70;1.40;;;;;;;31.37;32.42;93516.81;6123049;23;20517;-81
2021/06/21 11:30:35;;;;;;;1.38;1.27;;;;;;;31.45;32.67;93515.44;6110598;23;20025;-81
2021/06/21 11:33:13;;;;;;;2.83;1.95;;;;;;;31.26;33.34;93506.16;6111821;23;20101;-81
2021/06/21 11:35:57;;;;;;;4.85;1.67;;;;;;;31.48;33.66;93532.94;6111007;23;20018;-81
2021/06/21 11:38:33;;;;;;;1.85;1.60;;;;;;;31.76;33.89;93537.75;6086048;23;20534;-80
2021/06/21 11:41:17;;;;;;;1.95;1.67;;;;;;;31.65;33.60;93524.34;6083577;23;20013;-81
2021/06/21 11:44:02;;;;;;;2.50;1.77;;;;;;;31.70;33.29;93520.31;6085111;23;20393;-80
2021/06/21 11:46:50;;;;;;;2.35;1.60;;;;;;;31.73;33.02;93524.91;6084706;23;20057;-80
2021/06/21 11:49:20;;;;;;;2.30;1.70;;;;;;;31.70;33.10;93507.44;6084679;23;20446;-80